createdAt,value
2023-04-02T09:40:33.609Z,101525.84
2023-04-02T09:43:12.212Z,101526.28
2023-04-02T09:45:55.105Z,101529.88
2023-04-02T09:48:33.424Z,101532.66
2023-04-02T09:51:18.167Z,101537.81
2023-04-02T09:54:15.365Z,101544.66
2023-04-02T09:57:06.927Z,101540.16
2023-04-02T09:59:41.865Z,101551.56
2023-04-02T10:02:33.582Z,101562.28
2023-04-02T10:05:40.649Z,101556.44
2023-04-02T10:08:31.988Z,101563.56
2023-04-02T10:11:06.607Z,101571.59
2023-04-02T10:13:44.572Z,101576.16
2023-04-02T10:16:39.017Z,101578.00
2023-04-02T10:19:31.691Z,101593.72
2023-04-02T10:22:09.380Z,101589.41
2023-04-02T10:24:40.065Z,101605.06
2023-04-02T10:27:34.493Z,101605.28
2023-04-02T10:30:15.974Z,101607.13
2023-04-02T10:32:57.937Z,101613.22
2023-04-02T10:36:09.822Z,101617.69
2023-04-02T10:38:53.062Z,101635.31
2023-04-02T10:41:43.938Z,101619.03
2023-04-02T10:44:25.071Z,101623.44
2023-04-02T10:47:03.636Z,101626.81
2023-04-02T10:49:56.822Z,101628.56
2023-04-02T10:52:36.640Z,101632.22
2023-04-02T10:55:23.463Z,101641.81
2023-04-02T10:57:58.494Z,101657.63
2023-04-02T11:00:34.164Z,101661.25
2023-04-02T11:03:19.339Z,101654.34
2023-04-02T11:05:54.121Z,101671.78
2023-04-02T11:08:48.695Z,101672.63
2023-04-02T11:11:32.590Z,101670.88
2023-04-02T11:14:11.132Z,101679.75
2023-04-02T11:16:44.648Z,101658.13
2023-04-02T11:19:15.666Z,101674.81
2023-04-02T11:21:59.954Z,101688.84
2023-04-02T11:24:34.366Z,101690.63
2023-04-02T11:27:12.877Z,101682.84
2023-04-02T11:30:05.020Z,101701.13
2023-04-02T11:32:37.603Z,101694.22
2023-04-02T11:35:32.528Z,101700.31
2023-04-02T11:38:11.699Z,101707.38
2023-04-02T11:40:45.215Z,101701.31
2023-04-02T11:43:33.434Z,101713.47
2023-04-02T11:48:50.913Z,101725.59
2023-04-02T11:51:21.453Z,101730.75
2023-04-02T11:53:58.608Z,101721.19
2023-04-02T11:56:43.889Z,101733.44
2023-04-02T11:59:32.620Z,101734.41
2023-04-02T12:02:14.681Z,101747.50
2023-04-02T12:05:27.251Z,101731.88
2023-04-02T12:08:23.566Z,101733.81
2023-04-02T12:11:00.944Z,101746.19
2023-04-02T12:13:40.211Z,101744.94
2023-04-02T12:16:14.624Z,101749.22
2023-04-02T12:18:53.985Z,101736.97
2023-04-02T12:21:27.794Z,101754.13
2023-04-02T12:23:59.664Z,101750.09
2023-04-02T12:26:32.326Z,101761.75
2023-04-02T12:29:36.430Z,101756.28
2023-04-02T12:32:20.507Z,101768.97
2023-04-02T12:34:52.588Z,101761.75
2023-04-02T12:37:26.514Z,101778.81
2023-04-02T12:40:07.685Z,101773.34
2023-04-02T12:42:38.529Z,101790.41
2023-04-02T12:45:30.766Z,101780.16
2023-04-02T12:48:05.537Z,101776.03
2023-04-02T12:50:36.511Z,101793.00
2023-04-02T12:53:21.258Z,101786.59
2023-04-02T12:55:52.989Z,101799.41
2023-04-02T12:58:30.874Z,101795.63
2023-04-02T13:01:21.141Z,101784.53
2023-04-02T13:04:06.722Z,101787.19
2023-04-02T13:06:37.396Z,101804.75
2023-04-02T13:09:30.262Z,101801.50
2023-04-02T13:12:01.427Z,101812.06
2023-04-02T13:14:31.993Z,101812.34
2023-04-02T13:17:02.277Z,101808.06
2023-04-02T13:19:34.294Z,101812.06
2023-04-02T13:22:24.404Z,101818.50
2023-04-02T13:24:56.453Z,101819.84
2023-04-02T13:27:26.719Z,101811.88
2023-04-02T13:29:56.849Z,101818.31
2023-04-02T13:32:28.626Z,101842.97
2023-04-02T13:34:58.910Z,101831.66
2023-04-02T13:37:29.236Z,101828.69
2023-04-02T13:39:59.563Z,101829.53
2023-04-02T13:42:29.885Z,101842.56
2023-04-02T13:45:00.169Z,101841.94
2023-04-02T13:47:30.451Z,101838.94
2023-04-02T13:50:00.824Z,101838.38
2023-04-02T13:52:31.105Z,101847.69
2023-04-02T13:55:03.988Z,101861.88
2023-04-02T13:57:34.768Z,101847.34
2023-04-02T14:00:06.144Z,101851.00
2023-04-02T14:02:43.889Z,101855.78
2023-04-02T14:05:26.955Z,101853.38
2023-04-02T14:08:32.621Z,101849.63
2023-04-02T14:11:05.903Z,101869.13
2023-04-02T14:13:51.584Z,101865.34
2023-04-02T14:16:51.524Z,101870.56
2023-04-02T14:19:33.891Z,101879.47
2023-04-02T14:22:25.541Z,101876.00
2023-04-02T14:25:23.424Z,101871.66
2023-04-02T14:28:23.767Z,101875.25
2023-04-02T14:31:32.798Z,101882.25
2023-04-02T14:34:32.273Z,101879.28
2023-04-02T14:37:13.802Z,101895.66
2023-04-02T14:40:02.774Z,101876.63
2023-04-02T14:43:22.800Z,101886.34
2023-04-02T14:45:55.620Z,101907.69
2023-04-02T14:48:47.977Z,101883.34
2023-04-02T14:51:27.564Z,101885.25
2023-04-02T14:54:13.064Z,101900.41
2023-04-02T14:56:52.556Z,101901.69
2023-04-02T14:59:28.330Z,101909.31
2023-04-02T15:02:15.171Z,101894.44
2023-04-02T15:05:02.383Z,101922.81
2023-04-02T15:07:50.005Z,101908.53
2023-04-02T15:10:26.378Z,101931.31
2023-04-02T15:12:58.583Z,101925.75
2023-04-02T15:15:40.286Z,101923.00
2023-04-02T15:18:18.501Z,101933.34
2023-04-02T15:21:29.520Z,101931.41
2023-04-02T15:24:41.095Z,101951.38
2023-04-02T15:27:38.888Z,101937.94
2023-04-02T15:30:19.987Z,101939.34
2023-04-02T15:32:52.673Z,101956.19
2023-04-02T15:35:46.337Z,101961.75
2023-04-02T15:38:26.288Z,101953.13
2023-04-02T15:41:04.661Z,101963.13
2023-04-02T15:43:53.462Z,101965.00
2023-04-02T15:46:42.170Z,101974.97
2023-04-02T15:49:27.525Z,101978.16
2023-04-02T15:52:13.331Z,101982.50
2023-04-02T15:54:53.783Z,101991.06
2023-04-02T15:57:53.304Z,101991.97
2023-04-02T16:00:30.721Z,101992.88
2023-04-02T16:03:22.538Z,102001.81
2023-04-02T16:06:25.618Z,102005.81
2023-04-02T16:09:23.516Z,102005.09
2023-04-02T16:12:02.716Z,102020.66
2023-04-02T16:14:34.072Z,102034.91
2023-04-02T16:17:23.846Z,102012.69
2023-04-02T16:20:06.578Z,102033.09
2023-04-02T16:22:44.446Z,102034.81
2023-04-02T16:25:28.376Z,102016.44
2023-04-02T16:28:45.953Z,102044.13
2023-04-02T16:31:35.526Z,102051.63
2023-04-02T16:34:05.637Z,102057.41
2023-04-02T16:36:52.469Z,102056.28
2023-04-02T16:39:22.586Z,102063.53
2023-04-02T16:42:10.717Z,102068.28
2023-04-02T16:45:03.338Z,102073.22
2023-04-02T16:47:53.305Z,102074.69
2023-04-02T16:50:58.524Z,102078.75
2023-04-02T16:53:34.452Z,102088.72
2023-04-02T16:56:17.068Z,102091.84
2023-04-02T16:59:17.020Z,102106.84
2023-04-02T17:02:04.046Z,102110.69
2023-04-02T17:04:46.611Z,102122.47
2023-04-02T17:07:31.562Z,102117.78
2023-04-02T17:10:20.169Z,102131.22
2023-04-02T17:13:19.709Z,102125.94
2023-04-02T17:16:21.000Z,102133.38
2023-04-02T17:18:57.918Z,102140.72
2023-04-02T17:21:29.584Z,102140.22
2023-04-02T17:24:17.543Z,102139.84
2023-04-02T17:27:04.421Z,102148.19
2023-04-02T17:29:44.955Z,102151.34
2023-04-02T17:32:22.913Z,102142.28
2023-04-02T17:34:53.152Z,102155.13
2023-04-02T17:37:40.233Z,102160.00
2023-04-02T17:40:24.365Z,102161.56
2023-04-02T17:43:05.584Z,102173.34
2023-04-02T17:45:46.469Z,102174.50
2023-04-02T17:48:37.700Z,102171.72
2023-04-02T17:51:30.681Z,102183.00
2023-04-02T17:54:20.841Z,102178.47
2023-04-02T17:57:19.784Z,102191.06
2023-04-02T17:59:55.818Z,102184.81
2023-04-02T18:02:41.082Z,102192.38
2023-04-02T18:05:41.140Z,102189.66
2023-04-02T18:08:51.806Z,102200.56
2023-04-02T18:11:43.589Z,102203.72
2023-04-02T18:14:35.065Z,102200.25
2023-04-02T18:17:11.173Z,102211.31
2023-04-02T18:19:54.432Z,102218.91
2023-04-02T18:22:42.268Z,102218.63
2023-04-02T18:25:28.360Z,102210.63
2023-04-02T18:28:01.448Z,102226.84
2023-04-02T18:30:37.971Z,102225.84
2023-04-02T18:33:19.193Z,102227.25
2023-04-02T18:36:24.263Z,102226.34
2023-04-02T18:39:08.503Z,102235.84
2023-04-02T18:42:17.394Z,102245.34
2023-04-02T18:45:04.489Z,102246.88
2023-04-02T18:47:34.632Z,102256.16
2023-04-02T18:50:23.086Z,102231.56
2023-04-02T18:52:55.353Z,102245.38
2023-04-02T18:55:29.904Z,102252.97
2023-04-02T18:58:12.784Z,102245.56
2023-04-02T19:00:45.555Z,102256.00
2023-04-02T19:03:22.003Z,102269.84
2023-04-02T19:06:01.409Z,102277.63
2023-04-02T19:08:39.353Z,102271.47
2023-04-02T19:11:31.664Z,102268.59
2023-04-02T19:14:05.499Z,102266.66
2023-04-02T19:17:02.573Z,102272.53
2023-04-02T19:19:41.982Z,102279.47
2023-04-02T19:22:42.519Z,102282.16
2023-04-02T19:25:43.632Z,102287.25
2023-04-02T19:28:19.814Z,102287.09
2023-04-02T19:31:03.885Z,102285.03
2023-04-02T19:33:52.398Z,102285.59
2023-04-02T19:36:31.748Z,102294.13
2023-04-02T19:39:06.037Z,102293.31
2023-04-02T19:41:48.069Z,102287.25
2023-04-02T19:44:18.983Z,102293.19
2023-04-02T19:46:51.651Z,102302.63
2023-04-02T19:49:33.904Z,102313.03
2023-04-02T19:52:04.195Z,102303.50
2023-04-02T19:54:35.331Z,102302.56
2023-04-02T19:57:06.843Z,102286.69
2023-04-02T19:59:37.101Z,102308.56
2023-04-02T20:02:10.527Z,102310.28
2023-04-02T20:04:41.025Z,102308.31
2023-04-02T20:07:11.276Z,102312.38
2023-04-02T20:09:41.495Z,102316.69
2023-04-02T20:12:12.447Z,102320.25
2023-04-02T20:14:44.723Z,102320.13
2023-04-02T20:17:14.874Z,102339.16
2023-04-02T20:19:45.062Z,102330.44
2023-04-02T20:22:15.177Z,102329.56
2023-04-02T20:24:45.288Z,102332.91
2023-04-02T20:27:15.600Z,102344.91
2023-04-02T20:29:46.344Z,102341.38
2023-04-02T20:32:17.675Z,102348.25
2023-04-02T20:34:48.368Z,102349.31
2023-04-02T20:37:18.437Z,102342.34
2023-04-02T20:39:48.800Z,102348.22
2023-04-02T20:42:18.976Z,102353.31
2023-04-02T20:44:49.178Z,102348.75
2023-04-02T20:47:19.648Z,102346.75
2023-04-02T20:49:50.607Z,102364.25
2023-04-02T20:52:22.158Z,102363.38
2023-04-02T20:54:52.332Z,102350.91
2023-04-02T20:57:23.088Z,102366.59
2023-04-02T20:59:54.736Z,102371.69
2023-04-02T21:02:25.185Z,102363.84
2023-04-02T21:04:56.548Z,102375.88
2023-04-02T21:07:26.718Z,102366.31
2023-04-02T21:09:56.985Z,102372.25
2023-04-02T21:12:27.124Z,102367.88
2023-04-02T21:15:01.100Z,102370.47
2023-04-02T21:17:32.687Z,102373.13
2023-04-02T21:20:03.659Z,102373.94
2023-04-02T21:22:33.942Z,102380.97
2023-04-02T21:25:04.184Z,102378.19
2023-04-02T21:27:34.307Z,102383.31
2023-04-02T21:30:05.143Z,102397.19
2023-04-02T21:32:36.075Z,102389.34
2023-04-02T21:35:08.889Z,102386.84
2023-04-02T21:37:39.139Z,102389.28
2023-04-02T21:40:09.608Z,102390.00
2023-04-02T21:42:39.772Z,102397.53
2023-04-02T21:45:10.411Z,102388.00
2023-04-02T21:47:40.655Z,102391.41
2023-04-02T21:50:11.105Z,102399.19
2023-04-02T21:52:41.176Z,102387.69
2023-04-02T21:55:11.299Z,102399.97
2023-04-02T21:57:41.523Z,102402.25
2023-04-02T22:00:13.849Z,102404.63
2023-04-02T22:02:44.062Z,102405.53
2023-04-02T22:05:14.346Z,102402.13
2023-04-02T22:07:44.532Z,102413.28
2023-04-02T22:10:14.664Z,102415.09
2023-04-02T22:12:44.842Z,102415.97
2023-04-02T22:15:15.152Z,102418.47
2023-04-02T22:17:45.356Z,102413.28
2023-04-02T22:20:15.771Z,102416.66
2023-04-02T22:22:45.871Z,102414.03
2023-04-02T22:25:16.000Z,102406.88
2023-04-02T22:27:46.154Z,102418.06
2023-04-02T22:30:16.293Z,102417.94
2023-04-02T22:32:46.583Z,102408.47
2023-04-02T22:35:17.388Z,102423.97
2023-04-02T22:37:47.508Z,102430.94
2023-04-02T22:40:18.002Z,102430.94
2023-04-02T22:42:49.028Z,102437.84
2023-04-02T22:45:21.394Z,102433.50
2023-04-02T22:47:51.610Z,102437.72
2023-04-02T22:50:22.193Z,102433.34
2023-04-02T22:52:52.316Z,102428.84
2023-04-02T22:55:22.666Z,102418.19
2023-04-02T22:57:53.028Z,102430.50
2023-04-02T23:00:23.492Z,102431.53
2023-04-02T23:02:53.677Z,102427.94
2023-04-02T23:05:23.848Z,102440.00
2023-04-02T23:07:54.014Z,102435.81
2023-04-02T23:10:24.173Z,102435.66
2023-04-02T23:13:00.845Z,102433.69
2023-04-02T23:15:31.230Z,102438.75
2023-04-02T23:18:01.466Z,102437.84
2023-04-02T23:20:31.532Z,102442.09
2023-04-02T23:23:01.678Z,102445.63
2023-04-02T23:25:31.799Z,102441.94
2023-04-02T23:28:01.876Z,102446.03
2023-04-02T23:30:32.222Z,102448.22
2023-04-02T23:33:04.629Z,102456.66
2023-04-02T23:35:35.414Z,102448.16
2023-04-02T23:38:07.917Z,102448.91
2023-04-02T23:40:38.263Z,102453.16
2023-04-02T23:43:08.441Z,102452.19
2023-04-02T23:45:38.607Z,102445.38
2023-04-02T23:48:08.772Z,102454.13
2023-04-02T23:50:39.079Z,102456.03
2023-04-02T23:53:09.338Z,102462.94
2023-04-02T23:55:40.122Z,102462.03
2023-04-02T23:58:10.390Z,102456.56
